createdAt,value
2022-08-17T06:39:40.061Z,85.90
2022-08-17T06:43:04.879Z,88.40
2022-08-17T06:45:13.087Z,88.27
2022-08-17T06:54:38.409Z,92.33
2022-08-17T06:57:14.579Z,89.27
2022-08-17T06:59:54.972Z,89.17
2022-08-17T07:02:51.538Z,88.83
2022-08-17T07:05:23.395Z,87.93
2022-08-17T07:13:29.398Z,90.67
2022-08-17T07:16:08.672Z,87.47
2022-08-17T07:18:37.412Z,85.93
2022-08-17T07:21:22.878Z,91.90
2022-08-17T07:24:04.434Z,94.77
2022-08-17T07:47:21.612Z,98.50
2022-08-17T07:49:49.609Z,100.67
2022-08-17T07:52:51.496Z,101.23
2022-08-17T07:55:31.362Z,103.10
2022-08-17T07:58:00.569Z,95.57
2022-08-17T08:00:32.778Z,102.97
2022-08-17T08:03:16.028Z,98.93
2022-08-17T08:05:53.263Z,99.40
2022-08-17T08:08:29.146Z,100.00
2022-08-17T08:11:04.092Z,93.53
2022-08-17T08:13:33.298Z,94.17
2022-08-17T08:16:20.937Z,94.57
2022-08-17T08:18:54.664Z,95.90
2022-08-17T08:21:36.437Z,95.17
2022-08-17T08:24:26.390Z,91.43
2022-08-17T08:27:07.921Z,87.80
2022-08-17T08:29:45.942Z,89.17
2022-08-17T08:32:20.505Z,85.80
2022-08-17T08:35:02.006Z,85.93
2022-08-17T08:37:42.924Z,80.77
2022-08-17T08:40:24.098Z,78.03
2022-08-17T08:43:00.326Z,77.17
2022-08-17T08:45:39.545Z,79.13
2022-08-17T08:48:52.910Z,77.00
2022-08-17T08:51:19.798Z,79.10
2022-08-17T08:53:56.144Z,78.83
2022-08-17T08:56:32.227Z,71.03
2022-08-17T08:59:08.688Z,71.77
2022-08-17T09:01:46.943Z,68.57
2022-08-17T09:05:02.662Z,65.90
2022-08-17T09:07:36.514Z,60.93
2022-08-17T09:10:19.573Z,57.37
2022-08-17T09:12:54.338Z,56.03
2022-08-17T09:15:27.666Z,61.43
2022-08-17T09:18:30.397Z,62.13
2022-08-17T09:20:54.446Z,61.63
2022-08-17T09:23:33.551Z,57.23
2022-08-17T09:26:09.870Z,58.03
2022-08-17T09:28:40.158Z,56.80
2022-08-17T09:31:10.839Z,58.77
2022-08-17T09:33:45.600Z,58.60
2022-08-17T09:36:18.844Z,61.07
2022-08-17T09:38:58.385Z,62.40
2022-08-17T09:41:36.855Z,59.40
2022-08-17T09:44:23.151Z,58.00
2022-08-17T09:46:55.382Z,54.33
2022-08-17T09:49:31.577Z,52.73
2022-08-17T09:52:06.717Z,51.93
2022-08-17T09:54:40.214Z,53.23
2022-08-17T09:57:31.849Z,53.10
2022-08-17T10:00:20.149Z,51.80
2022-08-17T10:03:09.854Z,50.17
2022-08-17T10:05:46.465Z,50.70
2022-08-17T10:08:27.847Z,50.60
2022-08-17T10:11:12.732Z,51.20
2022-08-17T10:13:52.880Z,49.13
2022-08-17T10:16:28.572Z,56.17
2022-08-17T10:19:13.788Z,54.53
2022-08-17T10:22:32.538Z,52.63
2022-08-17T10:25:22.778Z,52.03
2022-08-17T10:27:57.685Z,49.63
2022-08-17T10:30:30.422Z,49.43
2022-08-17T10:33:02.072Z,48.90
2022-08-17T10:35:40.073Z,48.90
2022-08-17T10:38:28.797Z,49.50
2022-08-17T10:41:03.913Z,50.27
2022-08-17T10:44:37.312Z,52.23
2022-08-17T10:47:02.335Z,48.83
2022-08-17T10:49:34.013Z,48.07
2022-08-17T10:52:05.751Z,46.80
2022-08-17T10:54:46.905Z,41.53
2022-08-17T10:57:41.553Z,38.83
2022-08-17T11:00:29.312Z,39.10
2022-08-17T11:02:58.364Z,38.97
2022-08-17T11:05:44.436Z,39.00
2022-08-17T11:08:39.551Z,38.43
2022-08-17T11:11:34.645Z,36.87
2022-08-17T11:14:17.041Z,35.73
2022-08-17T11:17:01.971Z,36.40
2022-08-17T11:20:05.642Z,36.70
2022-08-17T11:23:16.109Z,36.80
2022-08-17T11:25:49.501Z,37.57
2022-08-17T11:28:20.325Z,36.53
2022-08-17T11:30:51.728Z,35.40
2022-08-17T11:33:55.756Z,34.60
2022-08-17T11:36:47.093Z,35.20
2022-08-17T11:39:54.894Z,33.97
2022-08-17T11:42:38.587Z,30.70
2022-08-17T11:45:34.054Z,31.03
2022-08-17T11:48:28.401Z,27.27
2022-08-17T11:51:24.015Z,27.17
2022-08-17T11:57:00.425Z,26.97
2022-08-17T11:59:58.735Z,28.23
2022-08-17T12:02:38.884Z,24.07
2022-08-17T12:05:35.318Z,26.17
2022-08-17T12:08:17.773Z,26.73
2022-08-17T12:11:00.247Z,25.60
2022-08-17T12:13:38.431Z,22.07
2022-08-17T12:16:23.656Z,20.43
2022-08-17T12:18:54.332Z,20.10
2022-08-17T12:21:30.961Z,20.97
2022-08-17T12:24:10.228Z,20.93
2022-08-17T12:26:38.547Z,23.30
2022-08-17T12:29:18.469Z,23.30
2022-08-17T12:32:06.878Z,22.27
2022-08-17T12:34:39.360Z,21.87
2022-08-17T12:37:18.685Z,20.70
2022-08-17T12:39:56.037Z,23.03
2022-08-17T12:42:29.273Z,22.73
2022-08-17T12:44:57.889Z,24.53
2022-08-17T12:47:26.497Z,26.93
2022-08-17T12:50:29.891Z,27.43
2022-08-17T12:53:01.669Z,26.47
2022-08-17T12:55:39.027Z,26.77
2022-08-17T12:58:14.353Z,26.97
2022-08-17T13:00:49.746Z,26.73
2022-08-17T13:03:20.168Z,26.47
2022-08-17T13:05:58.634Z,27.37
2022-08-17T13:08:31.934Z,25.20
2022-08-17T13:11:04.059Z,26.10
2022-08-17T13:13:34.900Z,24.40
2022-08-17T13:16:05.731Z,21.70
2022-08-17T13:18:45.018Z,20.67
2022-08-17T13:21:22.128Z,20.17
2022-08-17T13:23:58.991Z,21.07
2022-08-17T13:26:32.600Z,21.50
2022-08-17T13:29:01.293Z,23.87
2022-08-17T13:31:52.413Z,24.37
2022-08-17T13:34:48.977Z,27.43
2022-08-17T13:37:30.295Z,30.83
2022-08-17T13:40:02.325Z,28.90
2022-08-17T13:42:34.992Z,28.10
2022-08-17T13:45:53.973Z,29.33
2022-08-17T13:48:28.224Z,30.03
2022-08-17T13:51:15.085Z,29.60
2022-08-17T13:53:57.739Z,26.97
2022-08-17T13:56:36.956Z,26.30
2022-08-17T13:59:12.473Z,26.77
2022-08-17T14:01:43.061Z,24.10
2022-08-17T14:04:14.852Z,20.33
2022-08-17T14:06:54.219Z,20.23
2022-08-17T14:09:25.530Z,21.08
2022-08-17T14:11:55.177Z,19.83
2022-08-17T14:14:25.483Z,18.02
2022-08-17T14:16:54.360Z,18.33
2022-08-17T14:19:22.899Z,19.48
2022-08-17T14:21:52.167Z,19.45
2022-08-17T14:24:27.224Z,22.75
2022-08-17T14:26:55.886Z,23.02
2022-08-17T14:29:27.802Z,22.75
2022-08-17T14:31:57.388Z,20.40
2022-08-17T14:34:27.146Z,19.80
2022-08-17T14:36:56.491Z,19.48
2022-08-17T14:39:24.571Z,20.03
2022-08-17T14:41:53.017Z,21.55
2022-08-17T14:44:21.027Z,21.80
2022-08-17T14:46:50.539Z,21.40
2022-08-17T14:49:29.022Z,22.38
2022-08-17T14:51:57.113Z,23.42
2022-08-17T14:54:32.903Z,23.63
2022-08-17T14:57:26.232Z,23.70
2022-08-17T14:59:54.832Z,24.15
2022-08-17T15:02:30.091Z,23.23
2022-08-17T15:05:03.451Z,22.58
2022-08-17T15:07:31.844Z,22.20
2022-08-17T15:10:01.597Z,21.38
2022-08-17T15:12:33.684Z,20.42
2022-08-17T15:15:04.370Z,21.02
2022-08-17T15:17:43.894Z,18.65
2022-08-17T15:20:15.751Z,17.98
2022-08-17T15:22:45.393Z,19.02
2022-08-17T15:25:14.308Z,18.25
2022-08-17T15:27:42.523Z,17.38
2022-08-17T15:30:11.875Z,18.08
2022-08-17T15:32:50.715Z,19.00
2022-08-17T15:35:27.986Z,19.23
2022-08-17T15:37:58.280Z,19.70
2022-08-17T15:40:26.725Z,20.52
2022-08-17T15:42:54.893Z,20.40
2022-08-17T15:45:28.276Z,20.77
2022-08-17T15:47:57.829Z,21.33
2022-08-17T15:50:26.517Z,20.35
2022-08-17T15:52:59.246Z,21.02
2022-08-17T15:55:28.968Z,20.83
2022-08-17T15:57:57.281Z,21.13
2022-08-17T16:00:28.517Z,18.98
2022-08-17T16:03:45.129Z,18.55
2022-08-17T16:05:50.209Z,19.40
2022-08-17T16:08:21.345Z,21.25
2022-08-17T16:10:50.042Z,19.73
2022-08-17T16:13:19.096Z,20.27
2022-08-17T16:15:57.169Z,17.90
2022-08-17T16:18:31.077Z,16.52
2022-08-17T16:21:21.560Z,17.88
2022-08-17T16:23:51.530Z,18.40
2022-08-17T16:26:19.799Z,22.77
2022-08-17T16:28:47.984Z,23.58
2022-08-17T16:31:16.605Z,23.38
2022-08-17T16:34:15.599Z,23.20
2022-08-17T16:36:38.603Z,24.00
2022-08-17T16:39:09.555Z,23.03
2022-08-17T16:41:46.704Z,24.07
2022-08-17T16:44:17.054Z,23.85
2022-08-17T16:46:46.243Z,22.70
2022-08-17T16:49:36.200Z,23.75
2022-08-17T16:52:06.962Z,24.17
2022-08-17T16:54:35.643Z,24.07
2022-08-17T16:57:05.089Z,24.03
2022-08-17T16:59:40.720Z,23.07
2022-08-17T17:02:14.778Z,24.23
2022-08-17T17:04:50.759Z,24.87
2022-08-17T17:07:34.852Z,24.80
2022-08-17T17:10:07.933Z,23.13
2022-08-17T17:13:01.547Z,22.67
2022-08-17T17:15:34.525Z,22.23
2022-08-17T17:18:07.148Z,22.23
2022-08-17T17:20:45.871Z,20.87
2022-08-17T17:23:29.198Z,22.60
2022-08-17T17:26:04.047Z,22.37
2022-08-17T17:28:43.513Z,23.60
2022-08-17T17:31:16.846Z,23.53
2022-08-17T17:33:48.517Z,24.40
2022-08-17T17:36:26.620Z,25.03
2022-08-17T17:39:00.045Z,25.57
2022-08-17T17:41:33.522Z,28.10
2022-08-17T17:44:06.076Z,28.20
2022-08-17T17:46:39.361Z,29.10
2022-08-17T17:49:10.190Z,30.00
2022-08-17T17:52:06.662Z,29.53
2022-08-17T17:54:45.738Z,31.97
2022-08-17T17:57:24.655Z,31.20
2022-08-17T17:59:59.518Z,32.20
2022-08-17T18:02:52.603Z,31.87
2022-08-17T18:05:40.379Z,33.27
2022-08-17T18:08:32.273Z,32.60
2022-08-17T18:11:09.320Z,33.07
2022-08-17T18:13:52.083Z,32.60
2022-08-17T18:16:20.278Z,32.70
2022-08-17T18:18:50.133Z,34.07
2022-08-17T18:21:21.341Z,35.67
2022-08-17T18:23:55.610Z,36.80
2022-08-17T18:26:44.638Z,36.53
2022-08-17T18:29:39.113Z,39.67
2022-08-17T18:32:18.250Z,40.47
2022-08-17T18:34:48.962Z,41.87
2022-08-17T18:37:35.320Z,42.37
2022-08-17T18:40:27.612Z,42.50
2022-08-17T18:43:05.435Z,41.17
2022-08-17T18:45:38.265Z,41.80
2022-08-17T18:48:17.737Z,43.07
2022-08-17T18:50:45.989Z,43.77
2022-08-17T18:53:33.288Z,41.53
2022-08-17T18:56:26.844Z,41.07
2022-08-17T18:59:18.211Z,40.47
2022-08-17T19:02:10.059Z,37.90
2022-08-17T19:04:44.170Z,35.03
2022-08-17T19:07:26.648Z,36.87
2022-08-17T19:09:59.408Z,35.03
2022-08-17T19:12:33.916Z,35.00
2022-08-17T19:15:02.215Z,29.27
2022-08-17T19:17:37.754Z,29.10
2022-08-17T19:20:14.940Z,29.83
2022-08-17T19:22:52.902Z,28.83
2022-08-17T19:25:27.130Z,27.90
2022-08-17T19:28:03.730Z,27.63
2022-08-17T19:30:32.764Z,26.30
2022-08-17T19:33:03.154Z,23.87
2022-08-17T19:35:43.507Z,23.90
2022-08-17T19:38:25.002Z,23.00
2022-08-17T19:41:03.757Z,21.30
2022-08-17T19:44:05.993Z,22.00
2022-08-17T19:46:58.687Z,20.67
2022-08-17T19:49:41.216Z,21.07
2022-08-17T19:52:25.663Z,20.53
2022-08-17T19:54:59.445Z,20.27
2022-08-17T19:57:43.352Z,19.40
2022-08-17T20:00:15.987Z,18.00
2022-08-17T20:02:55.473Z,17.57
2022-08-17T20:05:48.733Z,16.33
2022-08-17T20:08:26.752Z,17.60
2022-08-17T20:10:57.393Z,17.97
2022-08-17T20:13:33.672Z,18.33
2022-08-17T20:16:04.404Z,17.63
2022-08-17T20:18:37.771Z,18.67
2022-08-17T20:21:19.996Z,18.10
2022-08-17T20:23:54.331Z,18.27
2022-08-17T20:26:27.309Z,19.27
2022-08-17T20:29:29.567Z,17.63
2022-08-17T20:32:18.446Z,18.87
2022-08-17T20:34:48.300Z,19.37
2022-08-17T20:37:32.648Z,20.17
2022-08-17T20:40:21.767Z,20.30
2022-08-17T20:42:49.884Z,20.57
2022-08-17T20:45:50.343Z,20.40
2022-08-17T20:48:37.471Z,21.80
2022-08-17T20:51:34.728Z,23.27
2022-08-17T20:54:22.456Z,22.60
2022-08-17T20:56:56.242Z,23.10
2022-08-17T21:00:13.908Z,23.90
2022-08-17T21:02:44.516Z,23.47
2022-08-17T21:05:34.300Z,23.83
2022-08-17T21:08:16.999Z,24.17
2022-08-17T21:10:47.774Z,25.03
2022-08-17T21:13:33.023Z,25.73
2022-08-17T21:16:08.763Z,25.83
2022-08-17T21:18:42.431Z,26.70
2022-08-17T21:21:32.436Z,27.20
2022-08-17T21:24:19.426Z,26.37
2022-08-17T21:27:00.188Z,26.63
2022-08-17T21:29:33.809Z,27.93
2022-08-17T21:32:28.302Z,27.77
2022-08-17T21:35:23.582Z,28.33
2022-08-17T21:37:58.298Z,30.37
2022-08-17T21:40:29.022Z,30.73
2022-08-17T21:43:00.699Z,29.73
2022-08-17T21:45:35.032Z,30.37
2022-08-17T21:48:15.729Z,31.97
2022-08-17T21:50:47.486Z,29.77
2022-08-17T21:53:32.246Z,28.50
2022-08-17T21:56:01.343Z,29.47
